Terminal Aerodrome Forecast
Issued by NWS

Home | Current Version | Previous Version | Text Only | Print | Product List | Glossary On
Versions: 1 2 3 4 5 6 7 8 9 10 11 12 13 14
000
FTUS44 KSJT 252018 AAA
TAFBBD
TAF AMD
KBBD 252018Z 2520/2618 36015KT P6SM VCSH BKN020
      TEMPO 2521/2522 4SM -TSRA BKN010CB
     FM260200 VRB03KT P6SM BKN035
     FM260500 VRB03KT P6SM SKC=

USA.gov is the U.S. government's official web portal to all federal, state and local government web resources and services.